sensor_id;sensor_type;location;lat;lon;timestamp;P1;durP1;ratioP1;P2;durP2;ratioP2
16025;SDS011;8117;52.488;13.460;2023-04-24T00:00:47;2.20;;;1.47;;
16025;SDS011;8117;52.488;13.460;2023-04-24T00:03:13;1.20;;;1.20;;
16025;SDS011;8117;52.488;13.460;2023-04-24T00:05:40;1.43;;;1.27;;
16025;SDS011;8117;52.488;13.460;2023-04-24T00:08:07;1.13;;;1.03;;
16025;SDS011;8117;52.488;13.460;2023-04-24T00:10:35;1.57;;;1.33;;
16025;SDS011;8117;52.488;13.460;2023-04-24T00:13:02;1.47;;;0.97;;
16025;SDS011;8117;52.488;13.460;2023-04-24T00:15:29;2.33;;;1.60;;
16025;SDS011;8117;52.488;13.460;2023-04-24T00:17:56;3.17;;;1.67;;
16025;SDS011;8117;52.488;13.460;2023-04-24T00:20:22;1.17;;;1.07;;
16025;SDS011;8117;52.488;13.460;2023-04-24T00:22:49;1.40;;;0.90;;
16025;SDS011;8117;52.488;13.460;2023-04-24T00:25:16;2.10;;;1.33;;
16025;SDS011;8117;52.488;13.460;2023-04-24T00:27:44;1.27;;;1.03;;
16025;SDS011;8117;52.488;13.460;2023-04-24T00:30:11;2.20;;;1.77;;
16025;SDS011;8117;52.488;13.460;2023-04-24T00:32:38;1.47;;;1.07;;
16025;SDS011;8117;52.488;13.460;2023-04-24T00:35:05;1.80;;;1.70;;
16025;SDS011;8117;52.488;13.460;2023-04-24T00:37:32;1.30;;;1.20;;
16025;SDS011;8117;52.488;13.460;2023-04-24T00:39:59;1.13;;;1.03;;
16025;SDS011;8117;52.488;13.460;2023-04-24T00:42:26;1.70;;;0.90;;
16025;SDS011;8117;52.488;13.460;2023-04-24T00:44:54;1.90;;;1.40;;
16025;SDS011;8117;52.488;13.460;2023-04-24T00:47:22;2.50;;;1.37;;
16025;SDS011;8117;52.488;13.460;2023-04-24T00:49:49;1.13;;;1.00;;
16025;SDS011;8117;52.488;13.460;2023-04-24T00:52:16;2.00;;;1.47;;
16025;SDS011;8117;52.488;13.460;2023-04-24T00:54:43;2.17;;;1.17;;
16025;SDS011;8117;52.488;13.460;2023-04-24T00:57:10;1.83;;;1.50;;
16025;SDS011;8117;52.488;13.460;2023-04-24T00:59:37;2.27;;;1.50;;
16025;SDS011;8117;52.488;13.460;2023-04-24T01:02:07;1.63;;;1.53;;
16025;SDS011;8117;52.488;13.460;2023-04-24T01:04:34;1.13;;;1.03;;
16025;SDS011;8117;52.488;13.460;2023-04-24T01:07:02;1.53;;;1.07;;
16025;SDS011;8117;52.488;13.460;2023-04-24T01:09:29;1.50;;;1.30;;
16025;SDS011;8117;52.488;13.460;2023-04-24T01:11:56;1.60;;;1.50;;
16025;SDS011;8117;52.488;13.460;2023-04-24T01:14:23;1.77;;;1.13;;
16025;SDS011;8117;52.488;13.460;2023-04-24T01:16:50;1.00;;;0.83;;
16025;SDS011;8117;52.488;13.460;2023-04-24T01:19:18;1.57;;;1.47;;
16025;SDS011;8117;52.488;13.460;2023-04-24T01:21:45;1.23;;;0.90;;
16025;SDS011;8117;52.488;13.460;2023-04-24T01:24:15;1.57;;;0.90;;
16025;SDS011;8117;52.488;13.460;2023-04-24T01:26:43;1.40;;;1.20;;
16025;SDS011;8117;52.488;13.460;2023-04-24T01:29:10;2.17;;;1.43;;
16025;SDS011;8117;52.488;13.460;2023-04-24T01:31:37;2.27;;;1.40;;
16025;SDS011;8117;52.488;13.460;2023-04-24T01:34:06;1.63;;;0.93;;
16025;SDS011;8117;52.488;13.460;2023-04-24T01:36:34;2.60;;;1.30;;
16025;SDS011;8117;52.488;13.460;2023-04-24T01:39:01;1.30;;;1.07;;
16025;SDS011;8117;52.488;13.460;2023-04-24T01:41:30;1.70;;;1.40;;
16025;SDS011;8117;52.488;13.460;2023-04-24T01:43:56;2.00;;;1.47;;
16025;SDS011;8117;52.488;13.460;2023-04-24T01:46:24;2.20;;;1.47;;
16025;SDS011;8117;52.488;13.460;2023-04-24T01:48:53;2.20;;;1.30;;
16025;SDS011;8117;52.488;13.460;2023-04-24T01:51:21;2.27;;;1.47;;
16025;SDS011;8117;52.488;13.460;2023-04-24T01:53:48;1.40;;;1.30;;
16025;SDS011;8117;52.488;13.460;2023-04-24T01:56:15;2.43;;;1.47;;
16025;SDS011;8117;52.488;13.460;2023-04-24T01:58:43;2.13;;;1.13;;
16025;SDS011;8117;52.488;13.460;2023-04-24T02:01:14;1.87;;;1.57;;
16025;SDS011;8117;52.488;13.460;2023-04-24T02:03:41;2.57;;;1.87;;
16025;SDS011;8117;52.488;13.460;2023-04-24T02:06:08;1.30;;;1.10;;
16025;SDS011;8117;52.488;13.460;2023-04-24T02:08:35;2.80;;;1.60;;
16025;SDS011;8117;52.488;13.460;2023-04-24T02:11:02;1.93;;;1.47;;
16025;SDS011;8117;52.488;13.460;2023-04-24T02:13:28;1.23;;;1.13;;
16025;SDS011;8117;52.488;13.460;2023-04-24T02:15:56;2.00;;;1.20;;
16025;SDS011;8117;52.488;13.460;2023-04-24T02:18:24;1.80;;;1.70;;
16025;SDS011;8117;52.488;13.460;2023-04-24T02:20:51;2.00;;;1.17;;
16025;SDS011;8117;52.488;13.460;2023-04-24T02:23:17;1.63;;;1.47;;
16025;SDS011;8117;52.488;13.460;2023-04-24T02:25:44;1.60;;;1.37;;
16025;SDS011;8117;52.488;13.460;2023-04-24T02:28:12;2.40;;;1.60;;
16025;SDS011;8117;52.488;13.460;2023-04-24T02:30:39;2.63;;;1.40;;
16025;SDS011;8117;52.488;13.460;2023-04-24T02:33:07;2.07;;;1.37;;
16025;SDS011;8117;52.488;13.460;2023-04-24T02:35:33;3.60;;;1.20;;
16025;SDS011;8117;52.488;13.460;2023-04-24T02:38:00;1.87;;;1.40;;
16025;SDS011;8117;52.488;13.460;2023-04-24T02:40:28;1.93;;;1.30;;
16025;SDS011;8117;52.488;13.460;2023-04-24T02:42:55;2.30;;;1.83;;
16025;SDS011;8117;52.488;13.460;2023-04-24T02:45:21;2.37;;;1.43;;
16025;SDS011;8117;52.488;13.460;2023-04-24T02:47:48;2.13;;;1.63;;
16025;SDS011;8117;52.488;13.460;2023-04-24T02:50:16;2.00;;;1.50;;
16025;SDS011;8117;52.488;13.460;2023-04-24T02:52:43;2.30;;;1.90;;
16025;SDS011;8117;52.488;13.460;2023-04-24T02:55:10;2.20;;;1.27;;
16025;SDS011;8117;52.488;13.460;2023-04-24T02:57:37;10.43;;;1.67;;
16025;SDS011;8117;52.488;13.460;2023-04-24T03:00:04;3.80;;;2.50;;
16025;SDS011;8117;52.488;13.460;2023-04-24T03:02:32;1.83;;;1.27;;
16025;SDS011;8117;52.488;13.460;2023-04-24T03:04:59;2.00;;;1.60;;
16025;SDS011;8117;52.488;13.460;2023-04-24T03:07:27;2.23;;;2.03;;
16025;SDS011;8117;52.488;13.460;2023-04-24T03:09:54;1.63;;;1.53;;
16025;SDS011;8117;52.488;13.460;2023-04-24T03:12:22;1.90;;;1.53;;
16025;SDS011;8117;52.488;13.460;2023-04-24T03:14:49;3.17;;;1.13;;
16025;SDS011;8117;52.488;13.460;2023-04-24T03:17:16;2.70;;;1.60;;
16025;SDS011;8117;52.488;13.460;2023-04-24T03:19:43;2.17;;;1.43;;
16025;SDS011;8117;52.488;13.460;2023-04-24T03:22:09;1.80;;;1.63;;
16025;SDS011;8117;52.488;13.460;2023-04-24T03:24:38;4.57;;;1.77;;
16025;SDS011;8117;52.488;13.460;2023-04-24T03:27:05;3.20;;;1.63;;
16025;SDS011;8117;52.488;13.460;2023-04-24T03:29:32;2.23;;;1.70;;
16025;SDS011;8117;52.488;13.460;2023-04-24T03:31:58;2.10;;;1.80;;
16025;SDS011;8117;52.488;13.460;2023-04-24T03:34:25;3.00;;;1.80;;
16025;SDS011;8117;52.488;13.460;2023-04-24T03:36:52;5.00;;;2.07;;
16025;SDS011;8117;52.488;13.460;2023-04-24T03:39:18;1.87;;;1.20;;
16025;SDS011;8117;52.488;13.460;2023-04-24T03:41:48;1.93;;;1.60;;
16025;SDS011;8117;52.488;13.460;2023-04-24T03:44:14;2.23;;;1.50;;
16025;SDS011;8117;52.488;13.460;2023-04-24T03:46:41;7.40;;;2.87;;
16025;SDS011;8117;52.488;13.460;2023-04-24T03:49:14;3.97;;;2.00;;
16025;SDS011;8117;52.488;13.460;2023-04-24T03:51:40;2.57;;;1.80;;
16025;SDS011;8117;52.488;13.460;2023-04-24T03:54:10;1.70;;;1.47;;
16025;SDS011;8117;52.488;13.460;2023-04-24T03:56:37;2.03;;;1.83;;
16025;SDS011;8117;52.488;13.460;2023-04-24T03:59:05;4.30;;;2.20;;
16025;SDS011;8117;52.488;13.460;2023-04-24T04:01:32;3.53;;;1.97;;
16025;SDS011;8117;52.488;13.460;2023-04-24T04:04:01;3.57;;;2.47;;
16025;SDS011;8117;52.488;13.460;2023-04-24T04:06:28;2.40;;;1.80;;
16025;SDS011;8117;52.488;13.460;2023-04-24T04:08:55;4.57;;;1.57;;
16025;SDS011;8117;52.488;13.460;2023-04-24T04:11:22;3.00;;;2.03;;
16025;SDS011;8117;52.488;13.460;2023-04-24T04:13:49;3.13;;;1.33;;
16025;SDS011;8117;52.488;13.460;2023-04-24T04:16:19;2.50;;;1.47;;
16025;SDS011;8117;52.488;13.460;2023-04-24T04:18:45;1.63;;;1.10;;
16025;SDS011;8117;52.488;13.460;2023-04-24T04:21:14;4.00;;;1.60;;
16025;SDS011;8117;52.488;13.460;2023-04-24T04:23:41;2.33;;;1.77;;
16025;SDS011;8117;52.488;13.460;2023-04-24T04:26:08;1.80;;;1.40;;
16025;SDS011;8117;52.488;13.460;2023-04-24T04:28:34;1.77;;;1.20;;
16025;SDS011;8117;52.488;13.460;2023-04-24T04:31:03;1.30;;;1.20;;
16025;SDS011;8117;52.488;13.460;2023-04-24T04:33:31;2.20;;;1.57;;
16025;SDS011;8117;52.488;13.460;2023-04-24T04:35:57;2.27;;;1.20;;
16025;SDS011;8117;52.488;13.460;2023-04-24T04:38:25;2.03;;;1.03;;
16025;SDS011;8117;52.488;13.460;2023-04-24T04:40:55;3.43;;;1.70;;
16025;SDS011;8117;52.488;13.460;2023-04-24T04:43:22;2.30;;;1.73;;
16025;SDS011;8117;52.488;13.460;2023-04-24T04:45:49;3.10;;;1.93;;
16025;SDS011;8117;52.488;13.460;2023-04-24T04:48:16;1.50;;;1.30;;
16025;SDS011;8117;52.488;13.460;2023-04-24T04:50:45;2.13;;;1.93;;
16025;SDS011;8117;52.488;13.460;2023-04-24T04:53:11;1.70;;;1.33;;
16025;SDS011;8117;52.488;13.460;2023-04-24T04:55:38;1.20;;;1.03;;
16025;SDS011;8117;52.488;13.460;2023-04-24T04:58:05;2.60;;;1.80;;
16025;SDS011;8117;52.488;13.460;2023-04-24T05:00:32;1.60;;;1.50;;
16025;SDS011;8117;52.488;13.460;2023-04-24T05:03:00;2.07;;;1.33;;
16025;SDS011;8117;52.488;13.460;2023-04-24T05:05:30;2.30;;;1.63;;
16025;SDS011;8117;52.488;13.460;2023-04-24T05:07:58;3.93;;;2.07;;
16025;SDS011;8117;52.488;13.460;2023-04-24T05:10:25;2.50;;;2.00;;
16025;SDS011;8117;52.488;13.460;2023-04-24T05:12:51;1.73;;;1.50;;
16025;SDS011;8117;52.488;13.460;2023-04-24T05:15:18;1.47;;;1.33;;
16025;SDS011;8117;52.488;13.460;2023-04-24T05:17:45;3.23;;;1.30;;
16025;SDS011;8117;52.488;13.460;2023-04-24T05:20:12;2.43;;;1.77;;
16025;SDS011;8117;52.488;13.460;2023-04-24T05:22:39;2.23;;;2.03;;
16025;SDS011;8117;52.488;13.460;2023-04-24T05:25:08;1.90;;;1.20;;
16025;SDS011;8117;52.488;13.460;2023-04-24T05:27:35;1.77;;;1.20;;
16025;SDS011;8117;52.488;13.460;2023-04-24T05:30:02;2.20;;;1.27;;
16025;SDS011;8117;52.488;13.460;2023-04-24T05:32:29;1.67;;;1.27;;
16025;SDS011;8117;52.488;13.460;2023-04-24T05:34:56;1.47;;;1.00;;
16025;SDS011;8117;52.488;13.460;2023-04-24T05:37:23;4.50;;;1.77;;
16025;SDS011;8117;52.488;13.460;2023-04-24T05:39:50;2.10;;;1.23;;
16025;SDS011;8117;52.488;13.460;2023-04-24T05:42:18;1.37;;;1.10;;
16025;SDS011;8117;52.488;13.460;2023-04-24T05:44:44;1.27;;;1.17;;
16025;SDS011;8117;52.488;13.460;2023-04-24T05:47:11;1.00;;;0.93;;
16025;SDS011;8117;52.488;13.460;2023-04-24T05:49:38;2.37;;;1.00;;
16025;SDS011;8117;52.488;13.460;2023-04-24T05:52:05;1.67;;;1.40;;
16025;SDS011;8117;52.488;13.460;2023-04-24T05:54:33;1.00;;;1.00;;
16025;SDS011;8117;52.488;13.460;2023-04-24T05:57:00;3.27;;;2.17;;
16025;SDS011;8117;52.488;13.460;2023-04-24T05:59:33;2.67;;;0.97;;
16025;SDS011;8117;52.488;13.460;2023-04-24T06:02:00;3.47;;;1.20;;
16025;SDS011;8117;52.488;13.460;2023-04-24T06:04:27;1.07;;;0.90;;
16025;SDS011;8117;52.488;13.460;2023-04-24T06:06:56;1.13;;;0.67;;
16025;SDS011;8117;52.488;13.460;2023-04-24T06:09:23;6.43;;;0.90;;
16025;SDS011;8117;52.488;13.460;2023-04-24T06:11:50;0.70;;;0.70;;
16025;SDS011;8117;52.488;13.460;2023-04-24T06:14:18;1.00;;;0.60;;
16025;SDS011;8117;52.488;13.460;2023-04-24T06:16:46;1.63;;;0.93;;
16025;SDS011;8117;52.488;13.460;2023-04-24T06:19:13;0.97;;;0.80;;
16025;SDS011;8117;52.488;13.460;2023-04-24T06:21:40;0.70;;;0.70;;
16025;SDS011;8117;52.488;13.460;2023-04-24T06:24:07;0.83;;;0.83;;
16025;SDS011;8117;52.488;13.460;2023-04-24T06:26:34;0.60;;;0.47;;
16025;SDS011;8117;52.488;13.460;2023-04-24T06:29:00;0.60;;;0.60;;
16025;SDS011;8117;52.488;13.460;2023-04-24T06:31:27;1.40;;;0.83;;
16025;SDS011;8117;52.488;13.460;2023-04-24T06:33:55;0.40;;;0.40;;
16025;SDS011;8117;52.488;13.460;2023-04-24T06:36:22;1.40;;;0.53;;
16025;SDS011;8117;52.488;13.460;2023-04-24T06:38:50;1.17;;;0.77;;
16025;SDS011;8117;52.488;13.460;2023-04-24T06:41:17;1.00;;;0.73;;
16025;SDS011;8117;52.488;13.460;2023-04-24T06:43:44;0.57;;;0.50;;
16025;SDS011;8117;52.488;13.460;2023-04-24T06:46:11;0.57;;;0.50;;
16025;SDS011;8117;52.488;13.460;2023-04-24T06:48:38;0.53;;;0.50;;
16025;SDS011;8117;52.488;13.460;2023-04-24T06:51:09;0.33;;;0.33;;
16025;SDS011;8117;52.488;13.460;2023-04-24T06:53:36;0.80;;;0.47;;
16025;SDS011;8117;52.488;13.460;2023-04-24T06:56:03;0.50;;;0.50;;
16025;SDS011;8117;52.488;13.460;2023-04-24T06:58:30;0.43;;;0.43;;
16025;SDS011;8117;52.488;13.460;2023-04-24T07:00:57;0.57;;;0.50;;
16025;SDS011;8117;52.488;13.460;2023-04-24T07:03:24;0.77;;;0.70;;
16025;SDS011;8117;52.488;13.460;2023-04-24T07:05:54;0.50;;;0.50;;
16025;SDS011;8117;52.488;13.460;2023-04-24T07:08:22;0.60;;;0.60;;
16025;SDS011;8117;52.488;13.460;2023-04-24T07:10:50;0.80;;;0.40;;
16025;SDS011;8117;52.488;13.460;2023-04-24T07:13:17;0.63;;;0.40;;
16025;SDS011;8117;52.488;13.460;2023-04-24T07:15:44;0.30;;;0.30;;
16025;SDS011;8117;52.488;13.460;2023-04-24T07:18:11;0.30;;;0.30;;
16025;SDS011;8117;52.488;13.460;2023-04-24T07:20:39;0.20;;;0.10;;
16025;SDS011;8117;52.488;13.460;2023-04-24T07:23:06;0.50;;;0.50;;
16025;SDS011;8117;52.488;13.460;2023-04-24T07:25:34;0.60;;;0.60;;
16025;SDS011;8117;52.488;13.460;2023-04-24T07:28:01;0.40;;;0.40;;
16025;SDS011;8117;52.488;13.460;2023-04-24T07:30:29;1.03;;;0.50;;
16025;SDS011;8117;52.488;13.460;2023-04-24T07:32:57;0.40;;;0.40;;
16025;SDS011;8117;52.488;13.460;2023-04-24T07:35:25;0.30;;;0.30;;
16025;SDS011;8117;52.488;13.460;2023-04-24T07:37:52;0.30;;;0.30;;
16025;SDS011;8117;52.488;13.460;2023-04-24T07:40:19;0.30;;;0.30;;
16025;SDS011;8117;52.488;13.460;2023-04-24T07:42:48;0.43;;;0.40;;
16025;SDS011;8117;52.488;13.460;2023-04-24T07:45:15;0.33;;;0.30;;
16025;SDS011;8117;52.488;13.460;2023-04-24T07:47:42;0.30;;;0.30;;
16025;SDS011;8117;52.488;13.460;2023-04-24T07:50:10;0.63;;;0.50;;
16025;SDS011;8117;52.488;13.460;2023-04-24T07:52:37;0.30;;;0.30;;
16025;SDS011;8117;52.488;13.460;2023-04-24T07:55:04;0.27;;;0.27;;
16025;SDS011;8117;52.488;13.460;2023-04-24T07:57:32;0.90;;;0.30;;
16025;SDS011;8117;52.488;13.460;2023-04-24T08:00:00;0.33;;;0.23;;
16025;SDS011;8117;52.488;13.460;2023-04-24T08:02:27;0.83;;;0.40;;
16025;SDS011;8117;52.488;13.460;2023-04-24T08:04:54;0.50;;;0.43;;
16025;SDS011;8117;52.488;13.460;2023-04-24T08:07:21;0.20;;;0.20;;
16025;SDS011;8117;52.488;13.460;2023-04-24T08:09:47;0.30;;;0.30;;
16025;SDS011;8117;52.488;13.460;2023-04-24T08:12:14;0.20;;;0.20;;
16025;SDS011;8117;52.488;13.460;2023-04-24T08:14:41;0.80;;;0.40;;
16025;SDS011;8117;52.488;13.460;2023-04-24T08:17:09;0.43;;;0.40;;
16025;SDS011;8117;52.488;13.460;2023-04-24T08:19:36;0.30;;;0.30;;
16025;SDS011;8117;52.488;13.460;2023-04-24T08:22:08;0.30;;;0.30;;
16025;SDS011;8117;52.488;13.460;2023-04-24T08:24:34;0.30;;;0.30;;
16025;SDS011;8117;52.488;13.460;2023-04-24T08:27:01;0.43;;;0.43;;
16025;SDS011;8117;52.488;13.460;2023-04-24T08:29:30;0.53;;;0.53;;
16025;SDS011;8117;52.488;13.460;2023-04-24T08:31:56;0.27;;;0.27;;
16025;SDS011;8117;52.488;13.460;2023-04-24T08:34:25;0.57;;;0.40;;
16025;SDS011;8117;52.488;13.460;2023-04-24T08:36:51;0.30;;;0.30;;
16025;SDS011;8117;52.488;13.460;2023-04-24T08:39:18;0.37;;;0.37;;
16025;SDS011;8117;52.488;13.460;2023-04-24T08:41:45;0.30;;;0.30;;
16025;SDS011;8117;52.488;13.460;2023-04-24T08:44:12;0.30;;;0.30;;
16025;SDS011;8117;52.488;13.460;2023-04-24T08:46:40;0.83;;;0.57;;
16025;SDS011;8117;52.488;13.460;2023-04-24T08:49:09;0.30;;;0.30;;
16025;SDS011;8117;52.488;13.460;2023-04-24T08:51:37;0.53;;;0.20;;
16025;SDS011;8117;52.488;13.460;2023-04-24T08:54:04;0.40;;;0.30;;
16025;SDS011;8117;52.488;13.460;2023-04-24T08:56:32;0.10;;;0.10;;
16025;SDS011;8117;52.488;13.460;2023-04-24T08:58:59;1.30;;;0.30;;
16025;SDS011;8117;52.488;13.460;2023-04-24T09:01:29;0.80;;;0.40;;
16025;SDS011;8117;52.488;13.460;2023-04-24T09:03:58;0.30;;;0.30;;
16025;SDS011;8117;52.488;13.460;2023-04-24T09:06:26;0.23;;;0.23;;
16025;SDS011;8117;52.488;13.460;2023-04-24T09:08:55;0.60;;;0.50;;
16025;SDS011;8117;52.488;13.460;2023-04-24T09:11:22;0.20;;;0.20;;
16025;SDS011;8117;52.488;13.460;2023-04-24T09:13:49;2.10;;;0.50;;
16025;SDS011;8117;52.488;13.460;2023-04-24T09:16:17;1.40;;;0.30;;
16025;SDS011;8117;52.488;13.460;2023-04-24T09:18:44;3.10;;;0.90;;
16025;SDS011;8117;52.488;13.460;2023-04-24T09:21:11;0.20;;;0.20;;
16025;SDS011;8117;52.488;13.460;2023-04-24T09:23:38;0.67;;;0.20;;
16025;SDS011;8117;52.488;13.460;2023-04-24T09:26:06;2.87;;;0.40;;
16025;SDS011;8117;52.488;13.460;2023-04-24T09:28:36;0.83;;;0.23;;
16025;SDS011;8117;52.488;13.460;2023-04-24T09:31:05;0.30;;;0.30;;
16025;SDS011;8117;52.488;13.460;2023-04-24T09:33:49;0.30;;;0.30;;
16025;SDS011;8117;52.488;13.460;2023-04-24T09:36:22;0.23;;;0.23;;
16025;SDS011;8117;52.488;13.460;2023-04-24T09:38:53;0.20;;;0.20;;
16025;SDS011;8117;52.488;13.460;2023-04-24T09:41:38;0.47;;;0.47;;
16025;SDS011;8117;52.488;13.460;2023-04-24T09:44:11;0.33;;;0.30;;
16025;SDS011;8117;52.488;13.460;2023-04-24T09:46:38;0.23;;;0.23;;
16025;SDS011;8117;52.488;13.460;2023-04-24T09:49:08;0.67;;;0.60;;
16025;SDS011;8117;52.488;13.460;2023-04-24T09:51:37;2.63;;;0.63;;
16025;SDS011;8117;52.488;13.460;2023-04-24T09:54:05;0.60;;;0.60;;
16025;SDS011;8117;52.488;13.460;2023-04-24T09:56:43;0.33;;;0.33;;
16025;SDS011;8117;52.488;13.460;2023-04-24T09:59:11;1.20;;;0.37;;
16025;SDS011;8117;52.488;13.460;2023-04-24T10:01:38;0.53;;;0.53;;
16025;SDS011;8117;52.488;13.460;2023-04-24T10:04:14;0.30;;;0.30;;
16025;SDS011;8117;52.488;13.460;2023-04-24T10:06:42;1.80;;;0.47;;
16025;SDS011;8117;52.488;13.460;2023-04-24T10:09:09;1.60;;;0.67;;
16025;SDS011;8117;52.488;13.460;2023-04-24T10:11:39;0.20;;;0.20;;
16025;SDS011;8117;52.488;13.460;2023-04-24T10:14:10;0.30;;;0.30;;
16025;SDS011;8117;52.488;13.460;2023-04-24T10:16:41;0.30;;;0.30;;
16025;SDS011;8117;52.488;13.460;2023-04-24T10:19:09;0.63;;;0.57;;
16025;SDS011;8117;52.488;13.460;2023-04-24T10:21:36;0.47;;;0.40;;
16025;SDS011;8117;52.488;13.460;2023-04-24T10:24:10;0.83;;;0.57;;
16025;SDS011;8117;52.488;13.460;2023-04-24T10:26:37;0.30;;;0.30;;
16025;SDS011;8117;52.488;13.460;2023-04-24T10:29:06;0.40;;;0.40;;
16025;SDS011;8117;52.488;13.460;2023-04-24T10:31:35;0.83;;;0.40;;
16025;SDS011;8117;52.488;13.460;2023-04-24T10:34:03;0.40;;;0.40;;
16025;SDS011;8117;52.488;13.460;2023-04-24T10:36:31;0.30;;;0.30;;
16025;SDS011;8117;52.488;13.460;2023-04-24T10:39:00;0.17;;;0.17;;
16025;SDS011;8117;52.488;13.460;2023-04-24T10:41:29;0.30;;;0.30;;
16025;SDS011;8117;52.488;13.460;2023-04-24T10:44:08;1.03;;;0.50;;
16025;SDS011;8117;52.488;13.460;2023-04-24T10:46:36;0.30;;;0.30;;
16025;SDS011;8117;52.488;13.460;2023-04-24T10:49:03;0.40;;;0.27;;
16025;SDS011;8117;52.488;13.460;2023-04-24T10:51:44;0.20;;;0.20;;
16025;SDS011;8117;52.488;13.460;2023-04-24T10:54:22;0.30;;;0.30;;
16025;SDS011;8117;52.488;13.460;2023-04-24T10:56:50;0.30;;;0.30;;
16025;SDS011;8117;52.488;13.460;2023-04-24T10:59:25;0.30;;;0.30;;
16025;SDS011;8117;52.488;13.460;2023-04-24T11:01:52;0.47;;;0.47;;
16025;SDS011;8117;52.488;13.460;2023-04-24T11:04:28;1.53;;;0.70;;
16025;SDS011;8117;52.488;13.460;2023-04-24T11:06:56;0.30;;;0.30;;
16025;SDS011;8117;52.488;13.460;2023-04-24T11:09:26;0.43;;;0.40;;
16025;SDS011;8117;52.488;13.460;2023-04-24T11:12:03;0.53;;;0.20;;
16025;SDS011;8117;52.488;13.460;2023-04-24T11:17:32;0.40;;;0.40;;
16025;SDS011;8117;52.488;13.460;2023-04-24T11:20:03;0.40;;;0.40;;
16025;SDS011;8117;52.488;13.460;2023-04-24T11:22:32;0.40;;;0.40;;
16025;SDS011;8117;52.488;13.460;2023-04-24T11:25:00;0.30;;;0.30;;
16025;SDS011;8117;52.488;13.460;2023-04-24T11:27:29;0.60;;;0.50;;
16025;SDS011;8117;52.488;13.460;2023-04-24T11:30:01;0.60;;;0.60;;
16025;SDS011;8117;52.488;13.460;2023-04-24T11:32:33;0.40;;;0.40;;
16025;SDS011;8117;52.488;13.460;2023-04-24T11:35:05;0.80;;;0.50;;
16025;SDS011;8117;52.488;13.460;2023-04-24T11:37:35;0.50;;;0.50;;
16025;SDS011;8117;52.488;13.460;2023-04-24T11:40:03;0.50;;;0.50;;
16025;SDS011;8117;52.488;13.460;2023-04-24T11:42:33;1.17;;;0.50;;
16025;SDS011;8117;52.488;13.460;2023-04-24T11:45:00;0.50;;;0.50;;
16025;SDS011;8117;52.488;13.460;2023-04-24T11:47:30;0.60;;;0.60;;
16025;SDS011;8117;52.488;13.460;2023-04-24T11:49:59;0.50;;;0.50;;
16025;SDS011;8117;52.488;13.460;2023-04-24T11:52:26;0.50;;;0.50;;
16025;SDS011;8117;52.488;13.460;2023-04-24T11:54:53;0.60;;;0.60;;
16025;SDS011;8117;52.488;13.460;2023-04-24T11:57:20;1.93;;;0.57;;
16025;SDS011;8117;52.488;13.460;2023-04-24T11:59:48;1.03;;;0.50;;
16025;SDS011;8117;52.488;13.460;2023-04-24T12:02:21;1.38;;;0.63;;
16025;SDS011;8117;52.488;13.460;2023-04-24T12:04:50;1.77;;;0.60;;
16025;SDS011;8117;52.488;13.460;2023-04-24T12:07:17;1.07;;;0.53;;
16025;SDS011;8117;52.488;13.460;2023-04-24T12:09:44;1.60;;;0.70;;
16025;SDS011;8117;52.488;13.460;2023-04-24T12:12:12;0.47;;;0.47;;
16025;SDS011;8117;52.488;13.460;2023-04-24T12:14:42;0.30;;;0.30;;
16025;SDS011;8117;52.488;13.460;2023-04-24T12:17:10;0.30;;;0.30;;
16025;SDS011;8117;52.488;13.460;2023-04-24T12:19:37;0.37;;;0.30;;
16025;SDS011;8117;52.488;13.460;2023-04-24T12:22:05;0.53;;;0.53;;
16025;SDS011;8117;52.488;13.460;2023-04-24T12:24:32;0.97;;;0.73;;
16025;SDS011;8117;52.488;13.460;2023-04-24T12:26:59;0.40;;;0.40;;
16025;SDS011;8117;52.488;13.460;2023-04-24T12:29:26;0.47;;;0.47;;
16025;SDS011;8117;52.488;13.460;2023-04-24T12:31:53;1.13;;;0.63;;
16025;SDS011;8117;52.488;13.460;2023-04-24T12:34:20;1.33;;;0.75;;
16025;SDS011;8117;52.488;13.460;2023-04-24T12:36:48;0.30;;;0.30;;
16025;SDS011;8117;52.488;13.460;2023-04-24T12:39:17;0.50;;;0.50;;
16025;SDS011;8117;52.488;13.460;2023-04-24T12:41:54;0.40;;;0.40;;
16025;SDS011;8117;52.488;13.460;2023-04-24T12:44:28;1.90;;;0.40;;
16025;SDS011;8117;52.488;13.460;2023-04-24T12:46:57;0.30;;;0.30;;
16025;SDS011;8117;52.488;13.460;2023-04-24T12:49:24;0.45;;;0.30;;
16025;SDS011;8117;52.488;13.460;2023-04-24T12:51:51;0.47;;;0.40;;
16025;SDS011;8117;52.488;13.460;2023-04-24T12:54:19;0.20;;;0.20;;
16025;SDS011;8117;52.488;13.460;2023-04-24T12:56:46;0.37;;;0.27;;
16025;SDS011;8117;52.488;13.460;2023-04-24T12:59:13;0.20;;;0.20;;
16025;SDS011;8117;52.488;13.460;2023-04-24T13:01:40;1.17;;;0.20;;
16025;SDS011;8117;52.488;13.460;2023-04-24T13:04:07;0.57;;;0.30;;
16025;SDS011;8117;52.488;13.460;2023-04-24T13:06:34;1.20;;;0.50;;
16025;SDS011;8117;52.488;13.460;2023-04-24T13:09:01;0.30;;;0.30;;
16025;SDS011;8117;52.488;13.460;2023-04-24T13:11:29;0.30;;;0.30;;
16025;SDS011;8117;52.488;13.460;2023-04-24T13:13:56;2.85;;;0.40;;
16025;SDS011;8117;52.488;13.460;2023-04-24T13:16:23;0.43;;;0.43;;
16025;SDS011;8117;52.488;13.460;2023-04-24T13:18:50;0.30;;;0.30;;
16025;SDS011;8117;52.488;13.460;2023-04-24T13:21:16;0.73;;;0.47;;
16025;SDS011;8117;52.488;13.460;2023-04-24T13:23:43;0.40;;;0.40;;
16025;SDS011;8117;52.488;13.460;2023-04-24T13:26:10;0.25;;;0.25;;
16025;SDS011;8117;52.488;13.460;2023-04-24T13:28:38;6.03;;;0.30;;
16025;SDS011;8117;52.488;13.460;2023-04-24T13:31:05;1.02;;;0.47;;
16025;SDS011;8117;52.488;13.460;2023-04-24T13:33:32;0.38;;;0.30;;
16025;SDS011;8117;52.488;13.460;2023-04-24T13:35:58;0.20;;;0.20;;
16025;SDS011;8117;52.488;13.460;2023-04-24T13:38:25;0.22;;;0.22;;
16025;SDS011;8117;52.488;13.460;2023-04-24T13:40:52;3.30;;;0.35;;
16025;SDS011;8117;52.488;13.460;2023-04-24T13:43:19;3.50;;;1.25;;
16025;SDS011;8117;52.488;13.460;2023-04-24T13:45:47;0.20;;;0.20;;
16025;SDS011;8117;52.488;13.460;2023-04-24T13:48:13;0.13;;;0.13;;
16025;SDS011;8117;52.488;13.460;2023-04-24T13:50:41;0.28;;;0.25;;
16025;SDS011;8117;52.488;13.460;2023-04-24T13:53:08;0.10;;;0.10;;
16025;SDS011;8117;52.488;13.460;2023-04-24T13:55:34;0.32;;;0.32;;
16025;SDS011;8117;52.488;13.460;2023-04-24T13:58:02;0.40;;;0.40;;
16025;SDS011;8117;52.488;13.460;2023-04-24T14:00:29;0.20;;;0.20;;
16025;SDS011;8117;52.488;13.460;2023-04-24T14:02:57;1.10;;;0.57;;
16025;SDS011;8117;52.488;13.460;2023-04-24T14:05:30;0.30;;;0.20;;
16025;SDS011;8117;52.488;13.460;2023-04-24T14:07:57;1.80;;;0.40;;
16025;SDS011;8117;52.488;13.460;2023-04-24T14:10:24;0.30;;;0.30;;
16025;SDS011;8117;52.488;13.460;2023-04-24T14:12:52;0.20;;;0.20;;
16025;SDS011;8117;52.488;13.460;2023-04-24T14:15:19;0.50;;;0.50;;
16025;SDS011;8117;52.488;13.460;2023-04-24T14:17:46;0.20;;;0.20;;
16025;SDS011;8117;52.488;13.460;2023-04-24T14:20:16;0.20;;;0.20;;
16025;SDS011;8117;52.488;13.460;2023-04-24T14:22:42;0.40;;;0.40;;
16025;SDS011;8117;52.488;13.460;2023-04-24T14:25:12;0.80;;;0.30;;
16025;SDS011;8117;52.488;13.460;2023-04-24T14:27:39;0.20;;;0.20;;
16025;SDS011;8117;52.488;13.460;2023-04-24T14:30:08;0.25;;;0.25;;
16025;SDS011;8117;52.488;13.460;2023-04-24T14:32:35;0.30;;;0.30;;
16025;SDS011;8117;52.488;13.460;2023-04-24T14:35:03;0.20;;;0.20;;
16025;SDS011;8117;52.488;13.460;2023-04-24T14:37:35;0.90;;;0.20;;
16025;SDS011;8117;52.488;13.460;2023-04-24T14:40:06;0.73;;;0.63;;
16025;SDS011;8117;52.488;13.460;2023-04-24T14:42:38;0.13;;;0.13;;
16025;SDS011;8117;52.488;13.460;2023-04-24T14:45:06;0.28;;;0.28;;
16025;SDS011;8117;52.488;13.460;2023-04-24T14:47:36;0.47;;;0.47;;
16025;SDS011;8117;52.488;13.460;2023-04-24T14:50:03;0.30;;;0.30;;
16025;SDS011;8117;52.488;13.460;2023-04-24T14:55:01;0.20;;;0.20;;
16025;SDS011;8117;52.488;13.460;2023-04-24T14:57:27;0.30;;;0.30;;